Time;durP1;ratioP1;P1;durP2;ratioP2;P2;SDS_P1;SDS_P2;PMS_P1;PMS_P2;Temp;Humidity;BMP_temperature;BMP_pressure;BME280_temperature;BME280_humidity;BME280_pressure;Samples;Min_cycle;Max_cycle;Signal;HPM_P1;HPM_P2
2023/09/15 00:00:25;;;;;;;10.30;5.12;;;;;;;19.39;78.03;98453.03;4394320;32;20095;-80
2023/09/15 00:02:56;;;;;;;9.93;5.20;;;;;;;18.88;79.91;98458.41;4394631;32;20160;-80
2023/09/15 00:05:26;;;;;;;11.43;5.37;;;;;;;18.78;80.49;98459.97;4394266;32;20163;-80
2023/09/15 00:07:53;;;;;;;10.82;4.80;;;;;;;18.91;78.81;98452.09;4393387;32;20807;-80
2023/09/15 00:10:21;;;;;;;10.25;5.53;;;;;;;19.02;78.13;98449.56;4394417;32;20099;-80
2023/09/15 00:12:48;;;;;;;10.70;5.40;;;;;;;19.28;78.61;98451.19;4394013;32;20098;-80
2023/09/15 00:15:15;;;;;;;10.05;5.65;;;;;;;19.19;79.06;98456.22;4394298;32;20101;-80
2023/09/15 00:17:43;;;;;;;11.35;5.95;;;;;;;18.66;81.55;98455.59;4394451;32;20146;-80
2023/09/15 00:20:14;;;;;;;11.07;6.00;;;;;;;18.85;81.70;98453.37;4393852;32;20166;-80
2023/09/15 00:22:51;;;;;;;12.13;6.45;;;;;;;18.77;82.58;98461.75;4393334;32;20125;-80
2023/09/15 00:25:26;;;;;;;13.62;6.62;;;;;;;18.64;83.83;98467.91;4394218;32;20136;-80
2023/09/15 00:27:57;;;;;;;11.20;6.05;;;;;;;18.81;83.24;98458.91;4393961;32;20125;-80
2023/09/15 00:30:25;;;;;;;11.43;6.15;;;;;;;18.25;85.28;98459.22;4394215;32;20078;-80
2023/09/15 00:32:52;;;;;;;10.52;5.68;;;;;;;18.46;84.39;98468.22;4392855;32;20102;-80
2023/09/15 00:35:24;;;;;;;11.95;5.87;;;;;;;19.17;78.67;98471.22;4393931;32;20504;-80
2023/09/15 00:37:51;;;;;;;11.02;5.90;;;;;;;18.94;78.48;98473.66;4396196;32;20140;-80
2023/09/15 00:40:20;;;;;;;12.60;5.20;;;;;;;19.14;77.04;98476.63;4407340;32;20090;-80
2023/09/15 00:42:49;;;;;;;10.10;5.15;;;;;;;18.99;76.06;98473.31;4394656;32;20098;-80
2023/09/15 00:45:19;;;;;;;10.98;5.70;;;;;;;18.28;79.26;98473.84;4395951;32;20153;-80
2023/09/15 00:47:50;;;;;;;12.13;5.90;;;;;;;18.15;81.14;98479.91;4394531;32;20090;-80
2023/09/15 00:50:21;;;;;;;11.32;6.25;;;;;;;18.28;80.34;98476.47;4394901;32;20538;-80
2023/09/15 00:52:51;;;;;;;12.13;5.95;;;;;;;18.12;81.69;98480.09;4394797;32;20142;-80
2023/09/15 00:55:21;;;;;;;11.73;6.30;;;;;;;18.61;80.48;98479.41;4395561;32;20153;-80
2023/09/15 00:57:53;;;;;;;13.35;6.82;;;;;;;18.58;80.94;98471.78;4394850;32;20150;-80
2023/09/15 01:00:21;;;;;;;13.23;7.32;;;;;;;18.12;84.64;98471.44;4395768;32;20109;-80
2023/09/15 01:02:49;;;;;;;12.93;6.93;;;;;;;18.20;85.03;98475.22;4395612;32;20663;-80
2023/09/15 01:05:23;;;;;;;10.95;6.32;;;;;;;18.40;84.48;98473.88;4394702;32;20568;-80
2023/09/15 01:07:52;;;;;;;12.18;6.70;;;;;;;18.35;84.55;98465.50;4396018;32;20165;-80
2023/09/15 01:10:20;;;;;;;13.73;6.57;;;;;;;18.38;84.87;98470.50;4395469;32;20140;-80
2023/09/15 01:12:48;;;;;;;11.00;6.05;;;;;;;18.61;84.00;98468.97;4394655;32;20111;-80
2023/09/15 01:15:17;;;;;;;11.82;6.30;;;;;;;18.84;81.74;98467.41;4406960;32;20125;-80
2023/09/15 01:18:14;;;;;;;12.35;6.60;;;;;;;18.86;80.39;98467.28;4389469;32;162659;-80
2023/09/15 01:20:53;;;;;;;11.27;6.33;;;;;;;18.00;84.84;98467.88;4395784;32;20086;-80
2023/09/15 01:23:39;;;;;;;11.77;6.18;;;;;;;18.41;82.74;98472.09;4395407;32;20481;-80
2023/09/15 01:26:27;;;;;;;10.43;5.32;;;;;;;18.88;77.62;98470.63;4395759;32;20471;-80
2023/09/15 01:29:08;;;;;;;10.27;5.47;;;;;;;18.69;77.21;98471.06;4395866;32;20128;-80
2023/09/15 01:31:37;;;;;;;13.07;5.87;;;;;;;18.41;78.12;98477.31;4395279;32;20169;-80
2023/09/15 01:34:05;;;;;;;11.98;6.18;;;;;;;18.59;76.98;98477.81;4406928;32;20122;-80
2023/09/15 01:36:32;;;;;;;13.80;6.15;;;;;;;18.23;79.72;98478.56;4395487;32;20117;-80
2023/09/15 01:38:59;;;;;;;11.27;5.78;;;;;;;18.42;79.78;98492.06;4395716;32;20151;-80
2023/09/15 01:41:26;;;;;;;12.00;5.75;;;;;;;18.36;80.88;98482.84;4395628;32;20130;-80
2023/09/15 01:43:54;;;;;;;11.98;6.12;;;;;;;17.91;83.08;98482.34;4395264;32;20103;-80
2023/09/15 01:46:23;;;;;;;11.60;6.05;;;;;;;18.15;81.55;98479.91;4395379;32;20440;-80
2023/09/15 01:48:53;;;;;;;11.05;5.53;;;;;;;18.35;79.65;98482.94;4395352;32;20160;-80
2023/09/15 01:51:21;;;;;;;11.55;5.28;;;;;;;17.83;79.24;98475.97;4394037;32;20082;-80
2023/09/15 01:53:51;;;;;;;10.77;5.40;;;;;;;17.92;78.11;98485.81;4395534;32;20109;-80
2023/09/15 01:56:19;;;;;;;10.95;5.60;;;;;;;17.88;77.57;98481.75;4395418;32;20096;-80
2023/09/15 01:58:45;;;;;;;11.90;5.90;;;;;;;17.97;76.94;98478.53;4395206;32;20082;-80
2023/09/15 02:01:13;;;;;;;10.80;5.30;;;;;;;17.70;78.25;98475.94;4395418;32;20078;-80
2023/09/15 02:03:40;;;;;;;10.70;5.37;;;;;;;17.61;78.21;98471.28;4395491;32;20468;-80
2023/09/15 02:06:07;;;;;;;11.43;5.90;;;;;;;17.72;78.28;98471.44;4395161;32;20140;-80
2023/09/15 02:08:34;;;;;;;12.75;6.12;;;;;;;17.43;80.31;98475.06;4395342;32;20158;-80
2023/09/15 02:11:01;;;;;;;11.57;6.00;;;;;;;17.24;83.37;98475.41;4395478;32;20119;-80
2023/09/15 02:13:28;;;;;;;11.45;5.80;;;;;;;17.39;83.16;98476.19;4394907;32;20095;-80
2023/09/15 02:15:55;;;;;;;11.98;6.40;;;;;;;17.39;82.47;98474.41;4395316;32;20169;-80
2023/09/15 02:18:22;;;;;;;11.50;5.80;;;;;;;17.01;84.45;98476.81;4395521;32;20082;-80
2023/09/15 02:20:55;;;;;;;11.75;5.93;;;;;;;17.27;83.49;98478.66;4395046;32;20094;-80
2023/09/15 02:23:23;;;;;;;13.20;6.22;;;;;;;16.87;86.15;98477.69;4395455;32;20102;-80
2023/09/15 02:25:51;;;;;;;16.90;6.57;;;;;;;16.91;85.63;98478.34;4393817;32;20134;-80
2023/09/15 02:28:21;;;;;;;12.43;6.25;;;;;;;16.97;84.71;98478.78;4395329;32;20512;-80
2023/09/15 02:30:48;;;;;;;12.02;6.12;;;;;;;16.80;86.07;98475.53;4395361;32;20073;-80
2023/09/15 02:33:15;;;;;;;12.40;6.00;;;;;;;17.19;84.89;98467.84;4394829;32;20094;-80
2023/09/15 02:35:42;;;;;;;11.80;6.03;;;;;;;17.12;85.70;98463.97;4395125;32;20120;-80
2023/09/15 02:38:09;;;;;;;11.98;5.93;;;;;;;16.85;87.16;98471.72;4395387;32;20090;-80
2023/09/15 02:40:36;;;;;;;12.70;6.22;;;;;;;17.33;85.51;98467.84;4394884;32;20436;-80
2023/09/15 02:43:03;;;;;;;12.55;6.18;;;;;;;17.10;86.92;98457.16;4395213;32;20113;-80
2023/09/15 02:45:36;;;;;;;11.98;6.07;;;;;;;17.22;86.05;98464.22;4395025;32;20110;-80
2023/09/15 02:48:04;;;;;;;12.85;6.40;;;;;;;17.35;85.74;98463.34;4393614;32;20161;-80
2023/09/15 02:50:32;;;;;;;11.77;6.03;;;;;;;17.44;85.36;98463.69;4394114;32;20077;-80
2023/09/15 02:53:00;;;;;;;13.88;6.35;;;;;;;17.06;86.95;98473.00;4393927;32;20116;-80
2023/09/15 02:55:27;;;;;;;12.23;5.72;;;;;;;17.19;86.51;98467.84;4394753;32;20118;-80
2023/09/15 02:57:54;;;;;;;12.50;5.45;;;;;;;17.29;86.22;98470.72;4394535;32;20165;-80
2023/09/15 03:00:22;;;;;;;13.38;6.40;;;;;;;17.51;84.71;98471.03;4394946;32;20145;-80
2023/09/15 03:02:49;;;;;;;13.05;5.82;;;;;;;17.49;85.41;98469.47;4394762;32;20107;-79
2023/09/15 03:05:16;;;;;;;12.02;5.85;;;;;;;17.20;86.88;98469.53;4395030;32;20523;-79
2023/09/15 03:07:43;;;;;;;12.65;6.10;;;;;;;17.06;87.35;98474.78;4393982;32;20141;-79
2023/09/15 03:10:10;;;;;;;11.85;5.65;;;;;;;17.13;86.90;98470.88;4394927;32;20572;-79
2023/09/15 03:12:37;;;;;;;12.13;6.30;;;;;;;17.51;85.14;98470.19;4394974;32;20162;-79
2023/09/15 03:15:08;;;;;;;12.18;6.28;;;;;;;17.62;82.34;98476.37;4394642;32;20120;-79
2023/09/15 03:17:39;;;;;;;11.65;5.47;;;;;;;17.32;84.21;98467.91;4395157;32;20162;-79
2023/09/15 03:20:25;;;;;;;12.20;6.07;;;;;;;17.55;83.35;98467.31;4393815;32;20628;-79
2023/09/15 03:22:52;;;;;;;11.70;5.93;;;;;;;17.91;81.64;98471.91;4394666;32;20150;-79
2023/09/15 03:25:19;;;;;;;11.70;5.37;;;;;;;17.95;81.96;98467.31;4394908;32;20707;-79
2023/09/15 03:27:46;;;;;;;14.05;6.18;;;;;;;17.71;83.21;98467.16;4394917;32;20176;-79
2023/09/15 03:30:13;;;;;;;12.90;5.80;;;;;;;17.19;86.64;98460.03;4394526;32;20220;-79
2023/09/15 03:32:40;;;;;;;10.73;5.12;;;;;;;17.26;86.44;98469.16;4394821;32;20099;-79
2023/09/15 03:35:08;;;;;;;10.82;5.50;;;;;;;17.69;81.21;98465.56;4394813;32;20484;-79
2023/09/15 03:37:35;;;;;;;10.48;5.37;;;;;;;17.34;83.18;98476.50;4394624;32;20136;-79
2023/09/15 03:40:04;;;;;;;10.68;5.22;;;;;;;17.39;81.48;98474.41;4394750;32;20082;-79
2023/09/15 03:42:31;;;;;;;10.13;5.18;;;;;;;17.10;82.86;98473.62;4394812;32;20369;-79
2023/09/15 03:44:58;;;;;;;10.60;5.10;;;;;;;17.09;81.93;98476.34;4394387;32;20454;-80
2023/09/15 03:47:25;;;;;;;10.30;4.75;;;;;;;17.18;79.83;98468.78;4394742;32;20137;-80
2023/09/15 03:49:52;;;;;;;10.98;5.50;;;;;;;16.46;81.84;98470.56;4394287;32;20441;-80
2023/09/15 03:52:19;;;;;;;10.95;5.30;;;;;;;15.86;85.40;98469.81;4394600;32;20154;-80
2023/09/15 03:54:46;;;;;;;9.75;4.78;;;;;;;15.62;86.92;98472.03;4394626;32;20110;-80
2023/09/15 03:57:13;;;;;;;10.95;5.37;;;;;;;15.60;88.15;98459.09;4394374;32;20424;-80
2023/09/15 03:59:40;;;;;;;11.98;5.75;;;;;;;15.77;87.32;98468.56;4394481;32;20089;-80
2023/09/15 04:02:08;;;;;;;11.63;5.68;;;;;;;15.60;88.72;98471.28;4394574;32;20155;-80
2023/09/15 04:04:35;;;;;;;12.43;6.07;;;;;;;15.84;87.61;98456.91;4394263;32;20102;-80
2023/09/15 04:07:02;;;;;;;11.10;5.15;;;;;;;15.48;89.51;98471.94;4394647;32;20145;-80
2023/09/15 04:09:29;;;;;;;10.82;5.50;;;;;;;15.51;90.14;98466.56;4394415;32;20437;-80
2023/09/15 04:11:56;;;;;;;11.70;5.70;;;;;;;16.03;87.58;98467.06;4394108;32;20102;-79
2023/09/15 04:14:23;;;;;;;11.73;5.22;;;;;;;15.99;87.42;98473.38;4394291;32;20393;-79
2023/09/15 04:16:50;;;;;;;11.45;5.45;;;;;;;16.06;87.44;98474.69;4394375;32;20512;-79
2023/09/15 04:19:17;;;;;;;13.13;5.53;;;;;;;16.58;84.35;98473.34;4394053;32;20156;-79
2023/09/15 04:21:44;;;;;;;11.40;5.60;;;;;;;16.55;85.04;98479.59;4394253;32;20551;-79
2023/09/15 04:24:11;;;;;;;11.25;5.07;;;;;;;16.19;87.39;98480.88;4394210;32;20154;-79
2023/09/15 04:26:39;;;;;;;12.15;5.45;;;;;;;16.14;87.96;98479.44;4393987;32;20174;-79
2023/09/15 04:29:05;;;;;;;11.75;5.37;;;;;;;16.53;85.70;98486.69;4394296;32;20153;-79
2023/09/15 04:31:32;;;;;;;10.57;5.20;;;;;;;16.33;85.81;98487.00;4394205;32;20465;-79
2023/09/15 04:33:59;;;;;;;10.93;5.47;;;;;;;16.60;83.87;98479.34;4393699;32;20103;-79
2023/09/15 04:36:26;;;;;;;11.12;5.47;;;;;;;16.37;84.34;98478.91;4394192;32;20086;-79
2023/09/15 04:38:54;;;;;;;12.35;5.90;;;;;;;16.66;83.09;98486.75;4394085;32;20495;-79
2023/09/15 04:41:20;;;;;;;11.75;5.43;;;;;;;16.29;85.50;98486.38;4393551;32;20161;-79
2023/09/15 04:43:47;;;;;;;12.20;5.37;;;;;;;16.39;85.12;98490.09;4394038;32;20134;-79
2023/09/15 04:46:17;;;;;;;12.52;5.65;;;;;;;16.13;86.16;98490.78;4393688;32;20105;-80
2023/09/15 04:48:44;;;;;;;12.55;6.00;;;;;;;16.12;87.20;98499.53;4393746;32;20070;-80
2023/09/15 04:51:12;;;;;;;12.80;5.75;;;;;;;16.07;88.29;98497.19;4393877;32;20113;-80
2023/09/15 04:53:38;;;;;;;11.50;5.05;;;;;;;16.48;87.20;98486.97;4392275;32;20158;-80
2023/09/15 04:56:05;;;;;;;11.52;5.30;;;;;;;16.53;87.94;98484.06;4394093;32;20082;-80
2023/09/15 04:58:32;;;;;;;11.63;5.82;;;;;;;16.95;84.88;98492.84;4393757;32;20090;-80
2023/09/15 05:01:00;;;;;;;11.32;5.78;;;;;;;17.14;85.21;98490.78;4393337;32;20516;-80
2023/09/15 05:03:27;;;;;;;12.13;5.68;;;;;;;16.86;87.13;98496.84;4392606;32;20106;-78
2023/09/15 05:05:55;;;;;;;11.40;5.03;;;;;;;17.18;86.74;98500.06;4393595;32;20094;-79
2023/09/15 05:08:22;;;;;;;10.60;5.30;;;;;;;17.14;86.65;98497.78;4393371;32;20094;-75
2023/09/15 05:10:49;;;;;;;10.70;4.75;;;;;;;17.53;86.23;98497.84;4393557;32;20107;-78
2023/09/15 05:13:17;;;;;;;11.23;4.72;;;;;;;18.01;82.61;98505.25;4393905;32;20172;-79
2023/09/15 05:15:44;;;;;;;9.13;4.32;;;;;;;19.00;78.21;98504.59;4393535;32;20098;-79
2023/09/15 05:18:11;;;;;;;9.10;4.40;;;;;;;19.88;74.12;98513.16;4393926;32;20335;-79
2023/09/15 05:20:38;;;;;;;9.85;4.32;;;;;;;20.48;70.21;98506.09;4393756;32;20452;-80
2023/09/15 05:23:05;;;;;;;10.25;3.70;;;;;;;21.49;67.08;98500.88;4395613;32;20112;-79
2023/09/15 05:25:34;;;;;;;8.68;3.87;;;;;;;22.10;63.31;98503.78;4396029;32;20105;-79
2023/09/15 05:28:01;;;;;;;7.72;3.87;;;;;;;22.88;60.33;98495.44;4396283;32;20074;-79
2023/09/15 05:30:32;;;;;;;7.95;4.07;;;;;;;22.89;59.80;98506.78;4395729;32;20106;-79
2023/09/15 05:32:59;;;;;;;8.15;3.90;;;;;;;23.35;58.73;98504.44;4395041;32;20071;-79
2023/09/15 05:35:26;;;;;;;8.57;3.75;;;;;;;23.72;57.75;98509.13;4395945;32;20485;-79
2023/09/15 05:37:53;;;;;;;7.25;3.30;;;;;;;24.64;54.61;98517.41;4396251;32;20584;-79
2023/09/15 05:40:20;;;;;;;6.68;3.47;;;;;;;25.00;53.25;98521.06;4395885;32;20117;-79
2023/09/15 05:42:47;;;;;;;7.12;3.53;;;;;;;25.53;52.06;98516.94;4395588;32;20086;-79
2023/09/15 05:45:15;;;;;;;7.53;3.47;;;;;;;25.83;51.01;98506.03;4394593;32;20460;-79
2023/09/15 05:47:43;;;;;;;8.10;3.50;;;;;;;26.11;50.00;98513.88;4396098;32;20079;-79
2023/09/15 05:50:10;;;;;;;7.80;3.33;;;;;;;26.41;50.17;98520.63;4395193;32;20165;-79
2023/09/15 05:52:37;;;;;;;6.93;3.30;;;;;;;26.64;48.53;98508.53;4395490;32;20114;-79
2023/09/15 05:55:05;;;;;;;6.50;3.40;;;;;;;26.42;49.19;98519.62;4395372;32;20149;-79
2023/09/15 05:57:32;;;;;;;7.25;3.30;;;;;;;26.83;48.92;98517.25;4395285;32;20428;-78
2023/09/15 05:59:59;;;;;;;6.72;3.30;;;;;;;27.24;47.05;98516.50;4395378;32;20177;-78
2023/09/15 06:02:26;;;;;;;6.30;2.95;;;;;;;27.67;46.20;98519.97;4395438;32;20543;-78
2023/09/15 06:04:53;;;;;;;6.62;3.22;;;;;;;27.55;46.27;98524.72;4395172;32;20160;-79
2023/09/15 06:07:21;;;;;;;7.93;3.28;;;;;;;28.47;44.64;98522.84;4395477;32;20098;-78
2023/09/15 06:09:48;;;;;;;6.70;3.00;;;;;;;28.98;42.92;98523.47;4395286;32;20103;-78
2023/09/15 06:12:15;;;;;;;6.55;3.35;;;;;;;28.37;44.33;98520.38;4395108;32;20111;-78
2023/09/15 06:14:42;;;;;;;6.20;3.22;;;;;;;28.59;44.11;98531.31;4395194;32;20153;-78
2023/09/15 06:17:09;;;;;;;6.40;3.25;;;;;;;28.46;44.40;98524.69;4395471;32;20085;-78
2023/09/15 06:19:36;;;;;;;7.10;3.33;;;;;;;29.17;43.64;98528.38;4395280;32;20098;-76
2023/09/15 06:22:05;;;;;;;5.07;2.80;;;;;;;29.16;43.14;98534.69;4395321;32;20099;-77
2023/09/15 06:24:32;;;;;;;5.82;2.83;;;;;;;29.20;43.30;98538.66;4394841;32;20112;-77
2023/09/15 06:26:59;;;;;;;6.75;2.60;;;;;;;30.20;42.08;98531.66;4395277;32;20100;-77
2023/09/15 06:29:26;;;;;;;8.00;2.95;;;;;;;30.56;39.87;98532.84;4394250;32;20473;-77
2023/09/15 06:31:53;;;;;;;5.12;2.70;;;;;;;30.13;40.94;98514.75;4394868;32;20098;-77
2023/09/15 06:34:20;;;;;;;5.55;2.80;;;;;;;30.51;40.75;98523.53;4393846;32;20104;-77
2023/09/15 06:36:47;;;;;;;6.22;2.83;;;;;;;30.01;41.51;98523.31;4395107;32;20070;-77
2023/09/15 06:39:14;;;;;;;5.95;2.58;;;;;;;30.69;40.08;98528.56;4393655;32;20158;-77
2023/09/15 06:41:41;;;;;;;5.30;2.83;;;;;;;30.86;38.45;98523.91;4395078;32;20098;-77
2023/09/15 06:44:10;;;;;;;4.93;2.87;;;;;;;31.47;38.01;98524.53;4395100;32;20087;-78
2023/09/15 06:46:37;;;;;;;5.47;3.00;;;;;;;31.85;36.41;98535.03;4394893;32;20433;-77
2023/09/15 06:49:05;;;;;;;7.62;2.90;;;;;;;32.00;36.19;98527.78;4395062;32;20174;-79
2023/09/15 06:51:32;;;;;;;8.40;2.60;;;;;;;31.32;37.35;98527.22;4395140;32;20094;-79
2023/09/15 06:54:00;;;;;;;5.80;2.67;;;;;;;31.41;37.69;98530.63;4394693;32;20090;-80
2023/09/15 06:56:27;;;;;;;5.65;2.50;;;;;;;31.63;37.70;98526.16;4395208;32;20096;-79
2023/09/15 06:58:54;;;;;;;5.60;2.70;;;;;;;32.08;36.18;98521.50;4395158;32;20102;-79
2023/09/15 07:01:21;;;;;;;4.40;2.45;;;;;;;32.20;36.06;98531.47;4394832;32;20123;-79
2023/09/15 07:03:48;;;;;;;5.82;2.67;;;;;;;32.12;36.07;98526.28;4394987;32;20090;-80
2023/09/15 07:06:15;;;;;;;3.72;2.22;;;;;;;31.57;36.49;98534.91;4394929;32;20464;-79
2023/09/15 07:08:42;;;;;;;5.47;2.65;;;;;;;30.91;37.10;98534.84;4394669;32;20087;-79
2023/09/15 07:11:09;;;;;;;4.70;2.40;;;;;;;29.71;38.42;98541.78;4395043;32;20393;-79
2023/09/15 07:13:36;;;;;;;3.17;2.10;;;;;;;30.93;36.73;98529.31;4394777;32;20086;-79
2023/09/15 07:16:03;;;;;;;5.47;2.17;;;;;;;31.03;36.57;98527.22;4395001;32;20549;-79
2023/09/15 07:18:30;;;;;;;4.53;2.10;;;;;;;31.40;36.50;98536.16;4395046;32;20109;-79
2023/09/15 07:20:57;;;;;;;4.18;2.10;;;;;;;31.16;35.77;98524.75;4394759;32;20563;-79
2023/09/15 07:23:24;;;;;;;4.45;2.40;;;;;;;30.42;36.97;98531.81;4394993;32;20145;-79
2023/09/15 07:25:51;;;;;;;3.28;2.00;;;;;;;30.28;37.40;98524.59;4394901;32;20173;-79
2023/09/15 07:28:18;;;;;;;3.97;1.80;;;;;;;29.59;38.11;98525.38;4394785;32;20158;-79
2023/09/15 07:30:45;;;;;;;3.67;2.08;;;;;;;29.52;36.96;98527.06;4394852;32;20575;-79
2023/09/15 07:33:12;;;;;;;3.72;1.70;;;;;;;28.69;38.44;98521.31;4394741;32;20097;-79
2023/09/15 07:35:39;;;;;;;3.72;1.75;;;;;;;28.12;38.42;98522.19;4394561;32;20434;-79
2023/09/15 07:38:06;;;;;;;3.42;1.70;;;;;;;27.50;40.24;98523.53;4394910;32;20158;-79
2023/09/15 07:40:34;;;;;;;2.62;1.70;;;;;;;27.33;40.69;98526.12;4394761;32;20533;-79
2023/09/15 07:43:01;;;;;;;2.78;1.83;;;;;;;28.39;39.22;98530.81;4394628;32;20085;-79
2023/09/15 07:45:28;;;;;;;2.85;1.80;;;;;;;29.05;37.70;98529.75;4394206;32;20078;-79
2023/09/15 07:47:55;;;;;;;3.42;1.98;;;;;;;29.87;36.38;98532.84;4394620;32;20154;-80
2023/09/15 07:50:23;;;;;;;4.65;2.10;;;;;;;30.11;35.68;98529.25;4394540;32;20144;-79
2023/09/15 07:52:50;;;;;;;4.05;1.90;;;;;;;29.85;36.16;98530.37;4394642;32;20090;-79
2023/09/15 07:55:17;;;;;;;3.83;2.00;;;;;;;30.39;35.63;98532.16;4394448;32;20247;-79
2023/09/15 07:57:44;;;;;;;7.90;1.75;;;;;;;30.79;34.16;98528.31;4394355;32;20471;-79
2023/09/15 08:00:12;;;;;;;2.90;1.80;;;;;;;30.78;34.16;98530.16;4394644;32;20121;-79
2023/09/15 08:02:40;;;;;;;3.45;1.90;;;;;;;30.85;34.40;98534.75;4394321;32;20094;-79
2023/09/15 08:05:08;;;;;;;3.20;1.80;;;;;;;30.10;35.44;98532.91;4394489;32;20085;-79
2023/09/15 08:07:35;;;;;;;2.65;1.80;;;;;;;30.60;34.47;98531.47;4394580;32;20091;-80
2023/09/15 08:10:03;;;;;;;2.30;1.52;;;;;;;30.94;34.50;98534.47;4394223;32;20141;-80
2023/09/15 08:12:31;;;;;;;3.92;1.70;;;;;;;30.24;34.49;98530.28;4394468;32;20102;-80
2023/09/15 08:14:58;;;;;;;5.18;1.70;;;;;;;30.21;34.53;98533.31;4394309;32;20460;-79
2023/09/15 08:17:25;;;;;;;3.17;1.92;;;;;;;30.33;34.82;98528.41;4394166;32;20122;-78
2023/09/15 08:22:38;;;;;;;5.00;2.10;;;;;;;30.96;33.60;98528.97;3780086;30;20098;-79
2023/09/15 08:25:06;;;;;;;3.78;1.95;;;;;;;30.70;34.01;98518.75;4408957;32;20094;-79
2023/09/15 08:27:34;;;;;;;3.45;2.00;;;;;;;30.02;34.87;98527.63;4395846;32;20503;-79
2023/09/15 08:30:01;;;;;;;3.15;1.80;;;;;;;29.41;35.92;98537.25;4409403;32;20121;-79
2023/09/15 08:32:28;;;;;;;4.47;2.10;;;;;;;28.48;37.50;98522.69;4408882;32;20108;-79
2023/09/15 08:34:56;;;;;;;4.45;1.90;;;;;;;28.56;37.90;98521.84;4409051;32;20459;-78
2023/09/15 08:37:23;;;;;;;3.75;1.92;;;;;;;28.34;37.93;98520.72;4409078;32;20090;-79
2023/09/15 08:39:50;;;;;;;3.60;1.85;;;;;;;28.43;37.97;98525.03;4408556;32;20105;-79
2023/09/15 08:42:27;;;;;;;3.58;2.00;;;;;;;28.68;37.95;98520.50;4408982;32;20130;-79
2023/09/15 08:44:56;;;;;;;3.08;1.83;;;;;;;27.75;39.29;98517.31;4408586;32;20160;-79
2023/09/15 08:47:25;;;;;;;3.47;1.95;;;;;;;27.69;39.39;98517.16;4409122;32;20098;-79
2023/09/15 08:49:53;;;;;;;4.65;1.90;;;;;;;27.83;39.45;98509.38;4395345;32;20156;-79
2023/09/15 08:52:20;;;;;;;5.72;2.25;;;;;;;27.98;40.19;98522.00;4408625;32;20456;-79
2023/09/15 08:54:48;;;;;;;5.45;2.08;;;;;;;28.22;39.46;98514.87;4408821;32;20407;-79
2023/09/15 08:57:16;;;;;;;5.12;2.08;;;;;;;27.70;39.53;98514.34;4409988;32;20154;-79
2023/09/15 08:59:43;;;;;;;6.03;2.85;;;;;;;27.91;39.46;98517.34;4410708;32;20581;-79
2023/09/15 09:02:12;;;;;;;3.85;1.80;;;;;;;27.57;40.82;98519.25;4411582;32;20108;-81
2023/09/15 09:04:41;;;;;;;5.30;2.28;;;;;;;27.34;41.16;98524.31;4413067;32;20146;-83
2023/09/15 09:07:09;;;;;;;5.57;2.20;;;;;;;27.54;40.66;98519.56;4413508;32;20178;-82
2023/09/15 09:09:36;;;;;;;4.37;2.33;;;;;;;27.28;41.56;98509.88;4404856;32;20059;-83
2023/09/15 09:12:04;;;;;;;7.37;2.30;;;;;;;27.18;42.06;98514.47;4390020;32;20110;-82
2023/09/15 09:14:32;;;;;;;6.22;2.40;;;;;;;27.12;42.10;98512.47;4416220;32;20073;-82
2023/09/15 09:17:01;;;;;;;7.28;2.42;;;;;;;26.93;42.42;98516.16;4417640;32;20115;-83
2023/09/15 09:19:37;;;;;;;4.85;2.50;;;;;;;26.57;43.63;98511.94;4403569;32;20090;-82
2023/09/15 09:22:07;;;;;;;6.15;2.30;;;;;;;26.65;43.02;98506.72;4413803;32;20098;-82
2023/09/15 09:24:37;;;;;;;4.05;1.98;;;;;;;26.75;43.09;98510.09;4411637;32;20078;-81
2023/09/15 09:27:09;;;;;;;9.02;2.05;;;;;;;27.16;41.68;98515.63;4410992;32;20142;-79
2023/09/15 09:29:37;;;;;;;4.47;2.10;;;;;;;27.03;41.52;98516.06;4415103;32;20458;-79
2023/09/15 09:32:06;;;;;;;5.12;2.00;;;;;;;26.92;42.64;98521.59;4422732;32;20074;-80
2023/09/15 09:34:34;;;;;;;5.90;2.30;;;;;;;27.19;41.61;98520.59;4408981;32;20436;-80
2023/09/15 09:37:14;;;;;;;3.53;2.10;;;;;;;27.20;41.58;98517.78;4415635;32;20153;-80
2023/09/15 09:39:41;;;;;;;4.22;2.10;;;;;;;27.51;40.86;98519.88;4415318;32;20108;-80
2023/09/15 09:42:08;;;;;;;4.07;2.00;;;;;;;27.69;40.38;98514.50;4398299;32;20090;-81
2023/09/15 09:44:36;;;;;;;3.85;1.90;;;;;;;27.75;40.20;98519.12;4396787;32;20404;-81
2023/09/15 09:47:07;;;;;;;5.10;2.00;;;;;;;28.74;38.24;98521.66;4398040;32;20160;-79
2023/09/15 09:49:35;;;;;;;5.15;1.90;;;;;;;28.34;38.41;98515.41;4410471;32;20401;-79
2023/09/15 09:52:03;;;;;;;4.20;1.87;;;;;;;28.97;37.44;98517.31;4384510;32;20161;-79
2023/09/15 09:54:31;;;;;;;3.85;1.87;;;;;;;29.68;36.75;98518.19;4410423;32;20104;-79
2023/09/15 09:56:58;;;;;;;3.72;1.98;;;;;;;29.87;36.08;98520.38;4410381;32;20090;-79
2023/09/15 09:59:27;;;;;;;7.12;1.98;;;;;;;29.16;35.92;98513.44;4396881;32;20125;-79
2023/09/15 10:01:54;;;;;;;3.70;2.00;;;;;;;28.80;37.02;98519.16;4396594;32;20140;-79
2023/09/15 10:04:22;;;;;;;4.95;1.90;;;;;;;28.71;36.74;98514.87;4396935;32;20126;-79
2023/09/15 10:06:49;;;;;;;3.60;1.80;;;;;;;28.17;38.43;98511.88;4410704;32;20148;-79
2023/09/15 10:09:18;;;;;;;4.40;2.00;;;;;;;28.28;38.58;98513.41;4410256;32;20090;-79
2023/09/15 10:11:45;;;;;;;3.50;2.08;;;;;;;28.39;39.46;98513.09;4410473;32;20150;-79
2023/09/15 10:14:12;;;;;;;4.10;1.92;;;;;;;28.62;39.41;98526.50;4410416;32;20090;-79
2023/09/15 10:16:39;;;;;;;3.12;1.37;;;;;;;28.25;36.86;98516.38;4396793;32;20445;-79
2023/09/15 10:19:07;;;;;;;5.78;1.50;;;;;;;26.46;38.26;98511.22;4411124;32;20106;-81
2023/09/15 10:21:35;;;;;;;2.97;1.40;;;;;;;26.43;39.65;98510.69;4396566;32;20575;-79
2023/09/15 10:24:08;;;;;;;3.25;1.40;;;;;;;26.41;37.84;98505.56;4410048;32;20086;-79
2023/09/15 10:26:39;;;;;;;3.95;1.70;;;;;;;26.60;38.60;98511.66;4410425;32;20101;-80
2023/09/15 10:29:06;;;;;;;4.32;1.80;;;;;;;28.10;38.09;98513.56;4397293;32;20136;-79
2023/09/15 10:31:34;;;;;;;3.08;1.70;;;;;;;28.17;37.51;98511.88;4396513;32;20113;-79
2023/09/15 10:34:02;;;;;;;3.47;1.60;;;;;;;27.54;37.59;98507.16;4410260;32;20094;-79
2023/09/15 10:36:29;;;;;;;3.03;1.80;;;;;;;27.52;36.98;98487.09;4384360;32;20169;-79
2023/09/15 10:38:57;;;;;;;2.75;1.62;;;;;;;27.49;38.11;98498.03;4410192;32;20116;-79
2023/09/15 10:41:28;;;;;;;2.92;1.67;;;;;;;27.37;38.17;98497.50;4410194;32;20520;-79
2023/09/15 10:43:56;;;;;;;3.90;1.62;;;;;;;27.19;38.05;98496.75;4410008;32;20104;-79
2023/09/15 10:46:35;;;;;;;2.90;1.30;;;;;;;27.37;38.85;98505.44;4396503;32;20102;-79
2023/09/15 10:49:18;;;;;;;4.45;1.40;;;;;;;27.93;35.27;98501.28;4410297;32;20116;-79
2023/09/15 10:51:53;;;;;;;3.12;1.60;;;;;;;27.45;35.25;98507.28;4409918;32;20090;-79
2023/09/15 10:54:21;;;;;;;2.55;1.20;;;;;;;27.02;36.72;98506.47;4410094;32;20078;-79
2023/09/15 10:56:48;;;;;;;3.50;1.60;;;;;;;26.98;36.87;98494.47;4410322;32;20148;-79
2023/09/15 10:59:18;;;;;;;1.27;1.12;;;;;;;26.61;38.15;98498.25;4396373;32;20473;-80
2023/09/15 11:01:45;;;;;;;2.67;1.48;;;;;;;27.05;36.76;98490.25;4410251;32;20433;-79
2023/09/15 11:04:17;;;;;;;3.53;1.50;;;;;;;27.20;37.83;98483.34;4410881;32;20082;-80
2023/09/15 11:06:47;;;;;;;2.97;1.52;;;;;;;27.93;35.91;98486.19;4410124;32;20112;-80
2023/09/15 11:09:15;;;;;;;4.28;1.67;;;;;;;28.01;35.13;98482.72;4410494;32;20098;-81
2023/09/15 11:11:44;;;;;;;3.30;1.30;;;;;;;28.56;34.99;98486.50;4410225;32;20434;-81
2023/09/15 11:14:20;;;;;;;2.55;1.40;;;;;;;28.56;35.01;98497.13;4409702;32;20133;-81
2023/09/15 11:16:49;;;;;;;2.30;1.40;;;;;;;28.15;33.56;98482.03;4410399;32;20157;-81
2023/09/15 11:19:18;;;;;;;3.50;1.40;;;;;;;29.03;33.81;98490.09;4409003;32;20495;-81
2023/09/15 11:21:47;;;;;;;4.53;2.00;;;;;;;29.58;32.23;98477.72;4409822;32;20161;-81
2023/09/15 11:24:15;;;;;;;2.58;1.40;;;;;;;28.99;33.64;98483.44;4409995;32;20121;-81
2023/09/15 11:26:47;;;;;;;2.45;1.60;;;;;;;28.40;34.98;98487.38;4396474;32;20099;-81
2023/09/15 11:29:15;;;;;;;2.40;1.45;;;;;;;28.69;34.20;98484.97;4410306;32;20062;-81
2023/09/15 11:31:44;;;;;;;2.55;1.50;;;;;;;28.97;32.83;98474.00;4410039;32;20108;-80
2023/09/15 11:34:14;;;;;;;2.72;1.50;;;;;;;29.44;32.84;98481.91;4409641;32;20556;-80
2023/09/15 11:36:42;;;;;;;2.00;1.42;;;;;;;28.94;32.47;98477.00;4410000;32;20098;-80